VTSP/HKT METAR and TAF weather

Enter ICAO airport designator
Station Type Date Time Source
VTSP METAR 2019/02/16 07:30 UTC NOAA

VTSP 160730Z 09010KT 020V130 9999 FEW020 33/17 Q1011 NOSIG


Station Type Date Time Source
VTSP Decoded METAR 2019/02/16 07:30 UTC NOAA

Phuket Airport, Thailand (VTSP) 08-07N 098-19E 10M
Feb 16, 2019 - 02:30 AM EST / 2019.02.16 0730 UTC
Wind: from the E (090 degrees) at 12 MPH (10 KT) (direction variable):0
Visibility: greater than 7 mile(s):0
Sky conditions: mostly clear
Temperature: 91 F (33 C)
Dew Point: 62 F (17 C)
Relative Humidity: 38%
Pressure (altimeter): 29.85 in. Hg (1011 hPa)
ob: VTSP 160730Z 09010KT 020V130 9999 FEW020 33/17 Q1011 NOSIG
cycle: 7

Station Type Date Time Source
VTSP TAF 2019/02/16 06:36 UTC NOAA

TAF VTSP 160500Z 1606/1712 09012KT 9999 FEW020
BECMG 1608/1610 28006KT
BECMG 1614/1616 00000KT 8000
BECMG 1700/1702 08010KT 9999


Example: see airport list